createdAt,value
2019-04-05T00:00:37.223Z,36.60
2019-04-05T00:03:06.108Z,45.15
2019-04-05T00:05:35.006Z,40.75
2019-04-05T00:08:03.981Z,44.55
2019-04-05T00:10:33.147Z,47.67
2019-04-05T00:13:02.268Z,48.95
2019-04-05T00:15:31.811Z,54.55
2019-04-05T00:18:00.663Z,68.50
2019-04-05T00:20:29.453Z,68.83
2019-04-05T00:22:58.225Z,68.78
2019-04-05T00:25:27.008Z,69.05
2019-04-05T00:27:56.112Z,80.07
2019-04-05T00:30:24.918Z,94.10
2019-04-05T00:32:55.416Z,95.40
2019-04-05T00:35:24.396Z,100.90
2019-04-05T00:37:53.267Z,94.17
2019-04-05T00:40:22.095Z,93.75
2019-04-05T00:42:50.908Z,100.27
2019-04-05T00:45:28.174Z,96.70
2019-04-05T00:47:50.647Z,108.92
2019-04-05T00:50:19.604Z,98.33
2019-04-05T00:52:48.520Z,99.37
2019-04-05T00:55:17.632Z,97.72
2019-04-05T00:57:49.359Z,101.47
2019-04-05T01:00:17.424Z,101.78
2019-04-05T01:02:46.198Z,95.25
2019-04-05T01:05:14.997Z,100.27
2019-04-05T01:07:44.241Z,101.58
2019-04-05T01:10:13.908Z,103.85
2019-04-05T01:12:43.251Z,106.25
2019-04-05T01:15:12.303Z,108.85
2019-04-05T01:17:41.324Z,101.55
2019-04-05T01:20:10.775Z,108.67
2019-04-05T01:22:41.232Z,104.80
2019-04-05T01:25:10.335Z,95.70
2019-04-05T01:27:40.548Z,110.10
2019-04-05T01:30:11.340Z,101.97
2019-04-05T01:32:40.378Z,102.78
2019-04-05T01:35:09.269Z,106.63
2019-04-05T01:37:38.597Z,101.75
2019-04-05T01:40:08.407Z,107.90
2019-04-05T01:42:38.203Z,100.47
2019-04-05T01:45:08.260Z,100.38
2019-04-05T01:47:37.367Z,102.38
2019-04-05T01:50:07.368Z,107.50
2019-04-05T01:52:36.547Z,95.28
2019-04-05T01:55:05.592Z,101.27
2019-04-05T01:57:34.541Z,99.20
2019-04-05T02:00:03.529Z,115.15
2019-04-05T02:02:32.346Z,104.58
2019-04-05T02:05:01.334Z,113.92
2019-04-05T02:07:30.615Z,106.72
2019-04-05T02:09:59.539Z,107.43
2019-04-05T02:12:28.646Z,107.30
2019-04-05T02:14:57.468Z,112.42
2019-04-05T02:17:26.484Z,99.32
2019-04-05T02:19:55.251Z,115.25
2019-04-05T02:22:24.043Z,103.78
2019-04-05T02:24:52.883Z,107.37
2019-04-05T02:27:21.691Z,112.95
2019-04-05T02:29:50.539Z,113.05
2019-04-05T02:32:19.600Z,109.00
2019-04-05T02:34:48.559Z,117.62
2019-04-05T02:37:17.417Z,113.30
2019-04-05T02:39:46.330Z,106.07
2019-04-05T02:42:16.021Z,115.15
2019-04-05T02:44:47.123Z,109.80
2019-04-05T02:47:16.333Z,130.87
2019-04-05T02:49:45.692Z,120.17
2019-04-05T02:52:17.575Z,121.28
2019-04-05T02:54:47.029Z,104.60
2019-04-05T02:57:16.544Z,116.30
2019-04-05T02:59:45.624Z,116.50
2019-04-05T03:02:14.985Z,126.62
2019-04-05T03:04:44.087Z,127.10
2019-04-05T03:07:14.886Z,120.35
2019-04-05T03:09:44.037Z,114.62
2019-04-05T03:12:13.483Z,131.82
2019-04-05T03:14:43.126Z,112.10
2019-04-05T03:17:12.517Z,134.75
2019-04-05T03:19:42.464Z,133.07
2019-04-05T03:22:13.701Z,129.23
2019-04-05T03:24:45.803Z,112.88
2019-04-05T03:27:25.384Z,133.18
2019-04-05T03:29:54.620Z,123.13
2019-04-05T03:32:24.119Z,130.25
2019-04-05T03:34:53.158Z,140.00
2019-04-05T03:37:22.356Z,126.60
2019-04-05T03:39:51.442Z,117.82
2019-04-05T03:42:20.893Z,112.25
2019-04-05T03:44:49.913Z,131.30
2019-04-05T03:47:19.174Z,117.25
2019-04-05T03:49:48.047Z,121.67
2019-04-05T03:52:17.369Z,115.92
2019-04-05T03:54:46.388Z,119.90
2019-04-05T03:57:15.288Z,120.35
2019-04-05T03:59:44.514Z,134.18
2019-04-05T04:02:13.370Z,127.30
2019-04-05T04:04:42.243Z,120.40
2019-04-05T04:07:11.345Z,117.40
2019-04-05T04:09:40.596Z,128.20
2019-04-05T04:12:09.552Z,132.03
2019-04-05T04:14:39.640Z,137.40
2019-04-05T04:17:12.818Z,129.20
2019-04-05T04:19:39.737Z,123.75
2019-04-05T04:22:22.298Z,126.22
2019-04-05T04:24:51.754Z,122.95
2019-04-05T04:27:21.064Z,131.97
2019-04-05T04:29:50.277Z,114.55
2019-04-05T04:32:19.084Z,130.00
2019-04-05T04:34:48.153Z,131.18
2019-04-05T04:37:16.997Z,118.70
2019-04-05T04:39:46.169Z,150.60
2019-04-05T04:42:15.457Z,120.15
2019-04-05T04:44:44.720Z,126.30
2019-04-05T04:47:25.486Z,122.80
2019-04-05T04:49:44.577Z,130.95
2019-04-05T04:52:14.058Z,130.50
2019-04-05T04:54:43.149Z,136.12
2019-04-05T04:57:12.547Z,136.57
2019-04-05T04:59:41.447Z,134.35
2019-04-05T05:02:10.948Z,118.35
2019-04-05T05:04:39.920Z,123.45
2019-04-05T05:07:09.052Z,144.62
2019-04-05T05:09:38.052Z,127.47
2019-04-05T05:12:07.525Z,134.50
2019-04-05T05:14:36.660Z,144.85
2019-04-05T05:17:05.918Z,139.00
2019-04-05T05:19:35.085Z,139.52
2019-04-05T05:22:04.129Z,137.65
2019-04-05T05:24:33.518Z,129.15
2019-04-05T05:27:02.599Z,129.60
2019-04-05T05:29:31.515Z,127.55
2019-04-05T05:32:00.773Z,139.70
2019-04-05T05:34:29.850Z,137.77
2019-04-05T05:36:58.843Z,132.18
2019-04-05T05:39:27.769Z,137.57
2019-04-05T05:41:57.119Z,134.75
2019-04-05T05:44:25.999Z,131.12
2019-04-05T05:46:55.069Z,127.75
2019-04-05T05:49:23.903Z,128.12
2019-04-05T05:51:52.844Z,137.88
2019-04-05T05:54:21.653Z,130.18
2019-04-05T05:56:50.815Z,125.40
2019-04-05T05:59:19.631Z,121.97
2019-04-05T06:01:48.398Z,127.90
2019-04-05T06:04:17.149Z,128.97
2019-04-05T06:06:45.981Z,132.90
2019-04-05T06:09:14.794Z,132.12
2019-04-05T06:11:43.777Z,135.12
2019-04-05T06:14:12.953Z,136.35
2019-04-05T06:16:46.547Z,135.48
2019-04-05T06:19:12.654Z,137.82
2019-04-05T06:21:41.419Z,119.22
2019-04-05T06:24:10.464Z,113.40
2019-04-05T06:26:39.331Z,120.25
2019-04-05T06:29:08.138Z,117.70
2019-04-05T06:31:36.928Z,114.67
2019-04-05T06:34:05.863Z,104.60
2019-04-05T06:36:34.671Z,107.27
2019-04-05T06:39:05.358Z,120.42
2019-04-05T06:41:34.459Z,119.90
2019-04-05T06:44:03.698Z,98.47
2019-04-05T06:46:32.465Z,119.90
2019-04-05T06:49:01.279Z,104.72
2019-04-05T06:51:30.735Z,114.62
2019-04-05T06:53:59.536Z,112.97
2019-04-05T06:56:28.368Z,105.00
2019-04-05T06:58:57.552Z,109.27
2019-04-05T07:01:26.428Z,110.80
2019-04-05T07:03:55.437Z,101.87
2019-04-05T07:06:24.515Z,104.32
2019-04-05T07:08:54.275Z,114.08
2019-04-05T07:11:23.170Z,111.35
2019-04-05T07:13:51.978Z,99.13
2019-04-05T07:16:20.833Z,103.02
2019-04-05T07:18:49.607Z,99.72
2019-04-05T07:21:18.420Z,110.63
2019-04-05T07:23:47.200Z,98.85
2019-04-05T07:26:16.004Z,104.35
2019-04-05T07:28:44.937Z,89.97
2019-04-05T07:31:14.040Z,102.78
2019-04-05T07:33:43.127Z,116.03
2019-04-05T07:36:12.001Z,102.97
2019-04-05T07:38:40.766Z,105.17
2019-04-05T07:41:09.775Z,115.82
2019-04-05T07:43:38.667Z,106.87
2019-04-05T07:46:07.493Z,100.95
2019-04-05T07:48:44.634Z,102.17
2019-04-05T07:51:07.019Z,98.97
2019-04-05T07:53:35.851Z,103.80
2019-04-05T07:56:04.633Z,98.85
2019-04-05T07:58:33.696Z,96.12
2019-04-05T08:01:04.412Z,99.42
2019-04-05T08:03:33.269Z,93.00
2019-04-05T08:06:02.321Z,89.07
2019-04-05T08:08:40.534Z,86.17
2019-04-05T08:11:09.744Z,82.97
2019-04-05T08:13:40.966Z,89.23
2019-04-05T08:16:09.885Z,82.30
2019-04-05T08:18:38.937Z,85.87
2019-04-05T08:21:07.768Z,82.50
2019-04-05T08:23:36.811Z,82.97
2019-04-05T08:26:05.739Z,85.20
2019-04-05T08:28:34.531Z,80.70
2019-04-05T08:31:03.337Z,75.87
2019-04-05T08:33:32.162Z,78.40
2019-04-05T08:36:01.135Z,76.07
2019-04-05T08:38:29.959Z,69.97
2019-04-05T08:40:58.736Z,63.80
2019-04-05T08:43:27.964Z,76.93
2019-04-05T08:45:56.819Z,69.70
2019-04-05T08:48:25.635Z,63.47
2019-04-05T08:50:54.581Z,68.63
2019-04-05T08:53:23.342Z,68.83
2019-04-05T08:55:52.378Z,59.07
2019-04-05T08:58:32.835Z,68.80
2019-04-05T09:00:51.679Z,66.30
2019-04-05T09:03:20.826Z,73.77
2019-04-05T09:05:49.592Z,68.80
2019-04-05T09:08:21.201Z,60.80
2019-04-05T09:10:49.100Z,67.77
2019-04-05T09:13:17.970Z,67.37
2019-04-05T09:15:47.074Z,69.07
2019-04-05T09:18:15.832Z,67.70
2019-04-05T09:20:44.645Z,61.00
2019-04-05T09:23:13.456Z,66.20
2019-04-05T09:25:42.407Z,64.10
2019-04-05T09:28:11.169Z,66.10
2019-04-05T09:30:40.290Z,63.97
2019-04-05T09:33:09.615Z,60.87
2019-04-05T09:35:38.428Z,60.20
2019-04-05T09:38:07.131Z,61.07
2019-04-05T09:40:35.872Z,56.17
2019-04-05T09:43:04.712Z,66.60
2019-04-05T09:45:33.795Z,67.20
2019-04-05T09:48:02.909Z,69.97
2019-04-05T09:50:31.648Z,59.97
2019-04-05T09:53:00.374Z,57.93
2019-04-05T09:55:29.391Z,59.40
2019-04-05T09:57:58.131Z,62.43
2019-04-05T10:00:27.271Z,56.60
2019-04-05T10:02:56.275Z,68.20
2019-04-05T10:05:25.087Z,61.73
2019-04-05T10:07:55.611Z,63.77
2019-04-05T10:10:24.379Z,55.70
2019-04-05T10:12:53.133Z,61.50
2019-04-05T10:15:22.147Z,60.50
2019-04-05T10:17:51.208Z,63.20
2019-04-05T10:20:20.131Z,70.03
2019-04-05T10:22:48.885Z,61.17
2019-04-05T10:25:17.671Z,65.67
2019-04-05T10:27:46.801Z,64.10
2019-04-05T10:30:17.514Z,57.33
2019-04-05T10:32:46.522Z,49.03
2019-04-05T10:35:15.366Z,54.13
2019-04-05T10:37:44.164Z,62.10
2019-04-05T10:40:13.334Z,57.70
2019-04-05T10:42:42.143Z,56.80
2019-04-05T10:45:12.485Z,55.60
2019-04-05T10:47:41.637Z,58.27
2019-04-05T10:50:12.051Z,56.93
2019-04-05T10:52:41.251Z,53.33
2019-04-05T10:55:10.780Z,57.57
2019-04-05T10:57:39.562Z,53.63
2019-04-05T11:00:10.789Z,49.57
2019-04-05T11:02:39.578Z,50.80
2019-04-05T11:05:08.530Z,53.37
2019-04-05T11:07:37.285Z,56.73
2019-04-05T11:10:06.583Z,47.17
2019-04-05T11:12:35.587Z,48.27
2019-04-05T11:15:04.987Z,47.93
2019-04-05T11:17:33.989Z,47.00
2019-04-05T11:20:20.205Z,48.07
2019-04-05T11:22:34.188Z,50.53
2019-04-05T11:25:03.056Z,44.67
2019-04-05T11:27:32.042Z,45.87
2019-04-05T11:30:01.050Z,46.43
2019-04-05T11:32:30.509Z,45.23
2019-04-05T11:34:59.296Z,43.77
2019-04-05T11:37:28.991Z,47.87
2019-04-05T11:39:58.079Z,43.80
2019-04-05T11:42:27.080Z,45.50
2019-04-05T11:44:58.371Z,47.83
2019-04-05T11:47:28.375Z,46.70
2019-04-05T11:49:59.315Z,47.17
2019-04-05T11:52:28.341Z,43.47
2019-04-05T11:54:57.186Z,41.37
2019-04-05T11:57:25.989Z,46.57
2019-04-05T11:59:54.764Z,48.83
2019-04-05T12:02:27.209Z,54.67
2019-04-05T12:04:58.164Z,40.83
2019-04-05T12:07:27.494Z,51.23
2019-04-05T12:09:56.451Z,48.30
2019-04-05T12:12:25.714Z,50.03
2019-04-05T12:14:54.525Z,46.60
2019-04-05T12:17:23.554Z,49.77
2019-04-05T12:19:52.429Z,48.03
2019-04-05T12:22:21.280Z,51.33
2019-04-05T12:24:50.047Z,52.30
2019-04-05T12:27:20.834Z,53.23
2019-04-05T12:29:49.632Z,47.73
2019-04-05T12:32:32.992Z,41.57
2019-04-05T12:34:51.724Z,42.00
2019-04-05T12:37:22.475Z,45.83
2019-04-05T12:39:51.275Z,45.80
2019-04-05T12:42:20.089Z,50.40
2019-04-05T12:44:49.115Z,42.00
2019-04-05T12:47:18.513Z,42.00
2019-04-05T12:49:47.353Z,42.87
2019-04-05T12:52:22.786Z,40.47
2019-04-05T12:54:50.695Z,41.53
2019-04-05T12:57:18.071Z,40.77
2019-04-05T12:59:46.884Z,43.37
2019-04-05T13:02:19.046Z,40.57
2019-04-05T13:04:46.110Z,47.20
2019-04-05T13:07:14.856Z,46.27
2019-04-05T13:09:45.673Z,48.00
2019-04-05T13:12:14.323Z,54.73
2019-04-05T13:14:43.445Z,49.90
2019-04-05T13:17:12.306Z,49.30
2019-04-05T13:19:41.058Z,39.67
2019-04-05T13:22:10.053Z,47.63
2019-04-05T13:24:40.248Z,40.27
2019-04-05T13:27:11.534Z,43.47
2019-04-05T13:29:39.899Z,47.70
2019-04-05T13:32:08.638Z,46.17
2019-04-05T13:34:37.378Z,45.33
2019-04-05T13:37:19.328Z,44.70
2019-04-05T13:39:37.262Z,43.60
2019-04-05T13:42:06.135Z,42.37
2019-04-05T13:44:35.127Z,49.97
2019-04-05T13:47:03.978Z,49.10
2019-04-05T13:49:47.345Z,51.53
2019-04-05T13:52:28.609Z,47.30
2019-04-05T13:54:57.709Z,39.97
2019-04-05T13:57:28.495Z,31.37
2019-04-05T13:59:57.123Z,37.90
2019-04-05T14:02:26.224Z,39.00
2019-04-05T14:04:55.068Z,39.37
2019-04-05T14:07:25.229Z,41.03
2019-04-05T14:09:54.155Z,41.43
2019-04-05T14:12:22.904Z,40.60
2019-04-05T14:14:51.867Z,39.13
2019-04-05T14:17:20.996Z,41.90
2019-04-05T14:19:49.904Z,40.87
2019-04-05T14:22:22.218Z,37.83
2019-04-05T14:24:50.406Z,36.83
2019-04-05T14:27:20.472Z,36.23
2019-04-05T14:29:49.834Z,34.53
2019-04-05T14:32:21.538Z,39.10
2019-04-05T14:34:49.135Z,35.87
2019-04-05T14:37:21.389Z,41.20
2019-04-05T14:39:48.501Z,27.43
2019-04-05T14:42:17.232Z,33.03
2019-04-05T14:44:46.062Z,35.90
2019-04-05T14:47:15.050Z,47.97
2019-04-05T14:49:44.145Z,33.13
2019-04-05T14:52:12.986Z,33.63
2019-04-05T14:54:43.229Z,30.77
2019-04-05T14:57:12.261Z,35.63
2019-04-05T14:59:41.063Z,30.00
2019-04-05T15:02:09.823Z,32.20
2019-04-05T15:04:38.677Z,27.60
2019-04-05T15:07:07.451Z,25.10
2019-04-05T15:09:36.241Z,27.53
2019-04-05T15:12:05.291Z,21.30
2019-04-05T15:14:34.059Z,23.27
2019-04-05T15:17:02.838Z,24.33
2019-04-05T15:19:31.735Z,23.97
2019-04-05T15:22:06.162Z,25.90
2019-04-05T15:24:31.000Z,22.83
2019-04-05T15:26:59.814Z,23.60
2019-04-05T15:29:28.598Z,23.57
2019-04-05T15:31:57.596Z,28.43
2019-04-05T15:34:28.517Z,31.20
2019-04-05T15:36:57.132Z,35.30
2019-04-05T15:39:25.899Z,35.33
2019-04-05T15:41:54.805Z,31.63
2019-04-05T15:44:24.204Z,31.33
2019-04-05T15:46:53.163Z,29.30
2019-04-05T15:49:22.301Z,32.63
2019-04-05T15:51:54.299Z,28.70
2019-04-05T15:54:22.764Z,25.50
2019-04-05T15:56:51.873Z,25.87
2019-04-05T15:59:21.985Z,26.13
2019-04-05T16:01:51.008Z,24.20
2019-04-05T16:04:19.852Z,23.10
2019-04-05T16:06:48.740Z,23.03
2019-04-05T16:09:18.504Z,24.17
2019-04-05T16:11:47.352Z,21.57
2019-04-05T16:14:16.114Z,20.70
2019-04-05T16:16:45.487Z,24.90
2019-04-05T16:19:14.361Z,19.43
2019-04-05T16:21:43.199Z,18.97
2019-04-05T16:24:12.083Z,17.53
2019-04-05T16:26:40.964Z,18.97
2019-04-05T16:29:10.088Z,20.10
2019-04-05T16:31:39.464Z,17.47
2019-04-05T16:34:08.269Z,21.47
2019-04-05T16:36:37.447Z,25.33
2019-04-05T16:39:10.418Z,22.43
2019-04-05T16:41:39.388Z,24.53
2019-04-05T16:44:08.161Z,23.67
2019-04-05T16:46:37.317Z,21.83
2019-04-05T16:49:06.314Z,18.43
2019-04-05T16:51:35.187Z,19.00
2019-04-05T16:54:04.075Z,15.53
2019-04-05T16:56:32.862Z,16.33
2019-04-05T16:59:01.856Z,18.47
2019-04-05T17:01:30.608Z,18.77
2019-04-05T17:03:59.752Z,18.60
2019-04-05T17:06:28.636Z,16.67
2019-04-05T17:08:57.713Z,19.30
2019-04-05T17:11:26.592Z,17.47
2019-04-05T17:13:59.404Z,20.50
2019-04-05T17:16:26.099Z,18.23
2019-04-05T17:18:54.870Z,16.80
2019-04-05T17:21:23.778Z,18.80
2019-04-05T17:23:52.770Z,20.83
2019-04-05T17:26:21.853Z,16.87
2019-04-05T17:28:50.616Z,16.97
2019-04-05T17:31:19.693Z,14.53
2019-04-05T17:33:48.989Z,17.87
2019-04-05T17:36:18.081Z,15.57
2019-04-05T17:38:47.124Z,17.07
2019-04-05T17:41:15.871Z,20.87
2019-04-05T17:43:44.683Z,29.50
2019-04-05T17:46:13.533Z,30.23
2019-04-05T17:48:42.498Z,22.50
2019-04-05T17:51:11.352Z,20.50
2019-04-05T17:53:40.172Z,29.37
2019-04-05T17:56:09.968Z,27.70
2019-04-05T17:58:39.523Z,25.87
2019-04-05T18:01:08.563Z,19.40
2019-04-05T18:03:37.536Z,23.93
2019-04-05T18:06:06.388Z,21.60
2019-04-05T18:08:35.183Z,20.77
2019-04-05T18:11:04.348Z,15.40
2019-04-05T18:13:33.135Z,17.97
2019-04-05T18:16:01.848Z,17.00
2019-04-05T18:18:33.618Z,17.60
2019-04-05T18:21:02.342Z,17.27
2019-04-05T18:23:31.100Z,17.27
2019-04-05T18:26:00.088Z,18.70
2019-04-05T18:28:28.836Z,17.93
2019-04-05T18:30:57.558Z,24.47
2019-04-05T18:33:26.603Z,21.20
2019-04-05T18:35:55.467Z,19.60
2019-04-05T18:38:24.261Z,15.27
2019-04-05T18:40:53.239Z,16.60
2019-04-05T18:43:21.987Z,15.13
2019-04-05T18:45:51.053Z,15.43
2019-04-05T18:48:19.804Z,14.60
2019-04-05T18:50:48.827Z,16.20
2019-04-05T18:53:17.646Z,12.70
2019-04-05T18:55:46.560Z,14.27
2019-04-05T18:58:15.787Z,13.60
2019-04-05T19:00:44.660Z,13.97
2019-04-05T19:03:13.424Z,12.13
2019-04-05T19:05:42.457Z,12.90
2019-04-05T19:08:11.195Z,13.03
2019-04-05T19:10:39.956Z,15.80
2019-04-05T19:13:08.778Z,15.20
2019-04-05T19:15:37.528Z,12.67
2019-04-05T19:18:06.412Z,14.80
2019-04-05T19:20:36.936Z,14.10
2019-04-05T19:23:05.808Z,14.70
2019-04-05T19:25:34.806Z,13.55
2019-04-05T19:28:03.558Z,14.63
2019-04-05T19:50:37.900Z,16.40
2019-04-05T19:53:06.711Z,17.10
2019-04-05T19:55:35.790Z,15.87
2019-04-05T19:58:04.791Z,16.70
2019-04-05T20:00:33.647Z,16.67
2019-04-05T20:03:02.710Z,13.58
2019-04-05T20:05:31.485Z,14.78
2019-04-05T20:08:00.683Z,13.65
2019-04-05T20:10:29.481Z,15.05
2019-04-05T20:12:59.229Z,15.35
2019-04-05T20:15:28.464Z,13.93
2019-04-05T20:17:57.524Z,14.63
2019-04-05T20:20:26.407Z,15.05
2019-04-05T20:22:55.450Z,17.17
2019-04-05T20:25:24.391Z,15.50
2019-04-05T20:27:53.307Z,14.00
2019-04-05T20:30:22.122Z,14.78
2019-04-05T20:32:50.935Z,14.83
2019-04-05T20:35:19.791Z,38.85
2019-04-05T20:37:48.602Z,16.55
2019-04-05T20:40:17.530Z,17.95
2019-04-05T20:42:46.401Z,16.55
2019-04-05T20:45:15.261Z,16.32
2019-04-05T20:47:44.106Z,19.32
2019-04-05T20:50:13.107Z,16.02
2019-04-05T20:52:41.896Z,15.60
2019-04-05T20:55:10.774Z,15.53
2019-04-05T20:57:39.902Z,68.60
2019-04-05T21:00:10.510Z,83.03
2019-04-05T21:02:39.347Z,96.35
2019-04-05T21:05:08.211Z,55.15
2019-04-05T21:07:36.990Z,40.78
2019-04-05T21:10:07.037Z,22.90
2019-04-05T21:12:35.944Z,24.10
2019-04-05T21:15:05.494Z,20.60
2019-04-05T21:17:34.307Z,15.88
2019-04-05T21:20:03.122Z,17.80
2019-04-05T21:22:32.206Z,19.40
2019-04-05T21:25:01.421Z,14.83
2019-04-05T21:27:30.318Z,16.52
2019-04-05T21:29:59.312Z,16.90
2019-04-05T21:32:28.299Z,16.67
2019-04-05T21:34:57.286Z,17.32
2019-04-05T21:37:26.283Z,16.70
2019-04-05T21:39:55.382Z,18.25
2019-04-05T21:42:24.298Z,19.90
2019-04-05T21:44:53.134Z,18.85
2019-04-05T21:47:21.969Z,18.02
2019-04-05T21:49:50.882Z,17.90
2019-04-05T21:52:20.859Z,17.30
2019-04-05T21:54:49.971Z,17.70
2019-04-05T21:57:19.194Z,17.60
2019-04-05T21:59:48.054Z,18.27
2019-04-05T22:02:17.431Z,16.50
2019-04-05T22:04:46.221Z,18.02
2019-04-05T22:07:15.088Z,15.85
2019-04-05T22:09:44.038Z,17.62
2019-04-05T22:12:13.039Z,15.63
2019-04-05T22:14:42.117Z,16.40
2019-04-05T22:17:11.189Z,18.57
2019-04-05T22:19:39.979Z,17.70
2019-04-05T22:22:08.772Z,15.98
2019-04-05T22:24:37.735Z,14.75
2019-04-05T22:27:06.627Z,15.40
2019-04-05T22:29:35.432Z,14.68
2019-04-05T22:32:04.324Z,14.75
2019-04-05T22:34:33.074Z,15.08
2019-04-05T22:37:01.927Z,15.50
2019-04-05T22:39:30.724Z,15.63
2019-04-05T22:41:59.490Z,14.75
2019-04-05T22:44:37.801Z,15.90
2019-04-05T22:46:58.986Z,15.00
2019-04-05T22:49:27.808Z,14.35
2019-04-05T22:51:56.602Z,13.85
2019-04-05T22:54:25.384Z,13.48
2019-04-05T22:56:54.223Z,15.58
2019-04-05T22:59:23.223Z,14.33
2019-04-05T23:01:52.057Z,14.38
2019-04-05T23:04:20.803Z,15.15
2019-04-05T23:06:49.630Z,15.00
2019-04-05T23:09:18.469Z,13.45
2019-04-05T23:11:47.268Z,14.20
2019-04-05T23:14:16.123Z,13.95
2019-04-05T23:16:45.016Z,14.93
2019-04-05T23:19:14.234Z,14.58
2019-04-05T23:21:43.072Z,14.73
2019-04-05T23:24:12.149Z,14.87
2019-04-05T23:26:40.948Z,14.63
2019-04-05T23:29:09.756Z,16.12
2019-04-05T23:31:38.627Z,15.48
2019-04-05T23:34:07.416Z,15.35
2019-04-05T23:36:36.401Z,17.77
2019-04-05T23:39:06.303Z,17.42
2019-04-05T23:41:35.115Z,18.02
2019-04-05T23:44:03.965Z,17.07
2019-04-05T23:46:32.822Z,19.20
2019-04-05T23:49:01.856Z,22.30
2019-04-05T23:51:30.848Z,19.55
2019-04-05T23:53:59.888Z,21.30
2019-04-05T23:56:28.744Z,20.62
2019-04-05T23:58:57.521Z,22.45
